Time;durP1;ratioP1;P1;durP2;ratioP2;P2;SDS_P1;SDS_P2;PMS_P1;PMS_P2;Temp;Humidity;BMP_temperature;BMP_pressure;BME280_temperature;BME280_humidity;BME280_pressure;Samples;Min_cycle;Max_cycle;Signal;HPM_P1;HPM_P2
2022/05/12 00:00:50;;;;;;;17.20;6.00;;;12.90;88.30;;;;;;4811953;29;20270;-89
2022/05/12 00:03:17;;;;;;;18.17;5.50;;;12.90;88.00;;;;;;4811630;29;20695;-89
2022/05/12 00:05:43;;;;;;;15.33;5.37;;;13.00;88.20;;;;;;4828331;29;20201;-89
2022/05/12 00:08:09;;;;;;;15.23;5.20;;;13.00;87.90;;;;;;4812060;29;20265;-88
2022/05/12 00:10:35;;;;;;;15.83;4.57;;;13.00;88.00;;;;;;4812337;29;20176;-87
2022/05/12 00:13:02;;;;;;;16.07;5.67;;;13.10;87.80;;;;;;4827620;29;20200;-87
2022/05/12 00:15:31;;;;;;;22.43;7.43;;;13.10;88.10;;;;;;4827262;29;20560;-88
2022/05/12 00:17:57;;;;;;;19.57;5.87;;;13.10;88.30;;;;;;4811262;29;20205;-88
2022/05/12 00:20:23;;;;;;;24.67;7.70;;;13.00;88.60;;;;;;4827737;29;20214;-88
2022/05/12 00:22:49;;;;;;;21.50;7.07;;;13.10;88.90;;;;;;4810988;29;20240;-88
2022/05/12 00:25:18;;;;;;;18.67;6.80;;;13.20;89.00;;;;;;4811331;29;20235;-87
2022/05/12 00:27:43;;;;;;;15.87;6.13;;;13.20;88.90;;;;;;4811117;29;20197;-89
2022/05/12 00:30:10;;;;;;;17.80;7.13;;;13.30;89.10;;;;;;4811247;29;20180;-88
2022/05/12 00:32:42;;;;;;;14.47;7.27;;;13.30;89.30;;;;;;4811104;29;20676;-88
2022/05/12 00:35:10;;;;;;;18.67;6.57;;;13.40;89.30;;;;;;4827059;29;20279;-87
2022/05/12 00:37:36;;;;;;;14.93;6.67;;;13.40;89.10;;;;;;4811700;29;20180;-88
2022/05/12 00:40:03;;;;;;;17.63;6.57;;;13.50;89.10;;;;;;4812314;29;20196;-87
2022/05/12 00:42:28;;;;;;;18.90;6.93;;;13.50;89.30;;;;;;4810831;29;20312;-87
2022/05/12 00:44:54;;;;;;;16.50;6.67;;;13.50;89.20;;;;;;4811110;29;20652;-87
2022/05/12 00:47:19;;;;;;;17.63;6.87;;;13.50;89.20;;;;;;4811274;29;20271;-89
2022/05/12 00:49:47;;;;;;;15.97;7.00;;;13.50;89.20;;;;;;4828604;29;20243;-88
2022/05/12 00:52:26;;;;;;;13.30;6.00;;;13.50;89.40;;;;;;4810788;29;20257;-89
2022/05/12 00:55:05;;;;;;;13.40;6.13;;;13.50;89.40;;;;;;4810591;29;20235;-89
2022/05/12 00:57:37;;;;;;;10.57;5.43;;;13.50;89.30;;;;;;4810848;29;20219;-88
2022/05/12 01:00:06;;;;;;;12.27;6.27;;;13.50;89.30;;;;;;4812053;29;20313;-88
2022/05/12 01:02:33;;;;;;;11.53;6.10;;;13.50;89.10;;;;;;4828497;29;20203;-87
2022/05/12 01:04:59;;;;;;;16.93;5.87;;;13.60;89.20;;;;;;4830699;29;20200;-87
2022/05/12 01:07:25;;;;;;;7.77;4.93;;;13.60;89.40;;;;;;4813404;29;20188;-87
2022/05/12 01:09:52;;;;;;;14.67;6.00;;;13.50;89.30;;;;;;4812136;29;20180;-88
2022/05/12 01:12:18;;;;;;;12.53;6.30;;;13.60;89.00;;;;;;4828268;29;20211;-89
2022/05/12 01:14:44;;;;;;;12.27;5.70;;;13.60;88.90;;;;;;4811013;29;20180;-88
2022/05/12 01:17:09;;;;;;;12.77;5.70;;;13.60;88.50;;;;;;4828214;29;20178;-88
2022/05/12 01:19:38;;;;;;;11.07;5.40;;;13.60;88.40;;;;;;4811207;29;20195;-88
2022/05/12 01:22:06;;;;;;;9.70;4.97;;;13.60;88.20;;;;;;4827898;29;20679;-87
2022/05/12 01:24:36;;;;;;;6.23;4.63;;;13.60;88.00;;;;;;4810742;29;20208;-88
2022/05/12 01:27:19;;;;;;;8.67;3.30;;;13.50;88.40;;;;;;4811514;29;20267;-88
2022/05/12 01:29:46;;;;;;;8.33;5.73;;;13.50;88.20;;;;;;4827771;29;20576;-89
2022/05/12 01:32:11;;;;;;;14.37;6.00;;;13.50;88.20;;;;;;4811547;29;20200;-88
2022/05/12 01:34:37;;;;;;;13.07;5.23;;;13.40;88.30;;;;;;4810993;29;20184;-88
2022/05/12 01:37:03;;;;;;;11.07;5.17;;;13.40;88.10;;;;;;4811053;29;20188;-88
2022/05/12 01:39:28;;;;;;;10.17;5.03;;;13.30;88.50;;;;;;4810806;29;20182;-88
2022/05/12 01:41:54;;;;;;;7.90;5.40;;;13.30;88.70;;;;;;4810789;29;20203;-88
2022/05/12 01:44:19;;;;;;;13.30;4.90;;;13.30;88.50;;;;;;4827304;29;20702;-88
2022/05/12 01:46:45;;;;;;;6.70;4.00;;;13.30;88.10;;;;;;4810716;29;20180;-89
2022/05/12 01:49:10;;;;;;;9.43;4.10;;;13.30;87.70;;;;;;4826986;29;20176;-88
2022/05/12 01:51:38;;;;;;;7.63;4.37;;;13.30;88.00;;;;;;4810228;29;20195;-88
2022/05/12 01:54:04;;;;;;;6.83;3.73;;;13.20;88.60;;;;;;4809777;29;20735;-88
2022/05/12 01:56:29;;;;;;;7.67;4.80;;;13.00;89.50;;;;;;4809635;29;20196;-87
2022/05/12 01:58:55;;;;;;;12.90;5.57;;;12.90;90.40;;;;;;4825795;29;20184;-87
2022/05/12 02:01:21;;;;;;;16.23;5.80;;;12.90;90.40;;;;;;4825879;29;20236;-87
2022/05/12 02:03:46;;;;;;;7.83;3.37;;;12.70;90.20;;;;;;4808937;29;20211;-87
2022/05/12 02:06:12;;;;;;;14.50;4.23;;;12.50;90.10;;;;;;4809086;29;20728;-88
2022/05/12 02:08:37;;;;;;;11.17;4.13;;;12.50;90.50;;;;;;4825351;29;20675;-87
2022/05/12 02:11:03;;;;;;;8.37;3.63;;;12.40;90.60;;;;;;4808882;29;20557;-86
2022/05/12 02:13:28;;;;;;;6.33;2.53;;;12.30;90.40;;;;;;4825407;29;20200;-87
2022/05/12 02:15:56;;;;;;;9.87;2.00;;;12.30;90.00;;;;;;4809045;29;20184;-88
2022/05/12 02:18:22;;;;;;;6.63;2.03;;;12.20;89.50;;;;;;4825456;29;20659;-87
2022/05/12 02:20:49;;;;;;;3.20;1.77;;;12.10;89.20;;;;;;4808880;29;20184;-87
2022/05/12 02:23:15;;;;;;;2.33;1.63;;;12.00;88.90;;;;;;4808591;29;20208;-86
2022/05/12 02:25:40;;;;;;;4.63;1.80;;;11.90;88.40;;;;;;4808740;29;20216;-86
2022/05/12 02:28:06;;;;;;;3.13;1.50;;;11.80;88.60;;;;;;4808841;29;20184;-88
2022/05/12 02:30:33;;;;;;;2.30;1.70;;;11.90;88.60;;;;;;4809052;29;20656;-88
2022/05/12 02:32:59;;;;;;;4.90;1.93;;;11.90;88.80;;;;;;4808899;29;20204;-88
2022/05/12 02:35:26;;;;;;;8.93;1.90;;;11.90;89.00;;;;;;4808518;29;20559;-87
2022/05/12 02:37:51;;;;;;;2.37;2.00;;;11.90;89.00;;;;;;4825036;29;20191;-88
2022/05/12 02:40:20;;;;;;;4.30;1.80;;;11.90;89.00;;;;;;4825098;29;20184;-87
2022/05/12 02:42:46;;;;;;;7.53;2.77;;;11.90;89.00;;;;;;4824947;29;20206;-87
2022/05/12 02:45:12;;;;;;;6.50;2.10;;;11.90;88.80;;;;;;4808387;29;20207;-86
2022/05/12 02:47:37;;;;;;;4.83;2.43;;;11.80;88.60;;;;;;4808201;29;20560;-87
2022/05/12 02:50:05;;;;;;;5.07;2.73;;;11.70;88.70;;;;;;4808602;29;20180;-86
2022/05/12 02:52:30;;;;;;;7.63;2.43;;;11.70;88.80;;;;;;4808351;29;20627;-87
2022/05/12 02:54:56;;;;;;;11.30;2.73;;;11.70;88.30;;;;;;4824591;29;20191;-86
2022/05/12 02:57:22;;;;;;;9.27;2.27;;;11.70;88.20;;;;;;4808376;29;20184;-87
2022/05/12 02:59:47;;;;;;;4.47;2.53;;;11.70;88.10;;;;;;4824689;29;20184;-86
2022/05/12 03:02:13;;;;;;;6.90;2.30;;;11.70;88.10;;;;;;4824577;29;20247;-87
2022/05/12 03:04:39;;;;;;;6.50;2.33;;;11.70;88.00;;;;;;4808167;29;20212;-86
2022/05/12 03:07:04;;;;;;;7.13;2.43;;;11.70;88.00;;;;;;4824658;29;20184;-87
2022/05/12 03:09:30;;;;;;;6.87;2.17;;;11.70;88.00;;;;;;4824382;29;20206;-87
2022/05/12 03:11:55;;;;;;;11.37;2.53;;;11.70;88.10;;;;;;4808045;29;20262;-85
2022/05/12 03:14:21;;;;;;;4.93;2.50;;;11.60;87.90;;;;;;4808186;29;20180;-87
2022/05/12 03:16:47;;;;;;;7.93;2.40;;;11.60;88.00;;;;;;4824482;29;20192;-86
2022/05/12 03:19:14;;;;;;;8.87;2.57;;;11.50;88.10;;;;;;4824525;29;20184;-86
2022/05/12 03:21:39;;;;;;;6.87;2.07;;;11.50;88.00;;;;;;4824336;29;20176;-87
2022/05/12 03:24:05;;;;;;;7.30;2.20;;;11.40;88.00;;;;;;4808185;29;20238;-87
2022/05/12 03:26:31;;;;;;;7.10;2.30;;;11.40;88.40;;;;;;4808042;29;20562;-86
2022/05/12 03:28:57;;;;;;;6.57;2.60;;;11.30;88.50;;;;;;4807805;29;20680;-87
2022/05/12 03:31:23;;;;;;;11.23;2.90;;;11.30;88.50;;;;;;4807835;29;20196;-87
2022/05/12 03:33:49;;;;;;;8.03;2.77;;;11.30;88.60;;;;;;4807843;29;20223;-87
2022/05/12 03:36:17;;;;;;;10.23;2.80;;;11.30;88.60;;;;;;4824479;29;20188;-87
2022/05/12 03:38:43;;;;;;;16.43;3.23;;;11.30;88.70;;;;;;4824320;29;20180;-87
2022/05/12 03:41:08;;;;;;;5.40;2.87;;;11.40;88.80;;;;;;4807879;29;20225;-87
2022/05/12 03:46:19;;;;;;;9.10;3.10;;;11.30;88.40;;;;;;4824397;29;20214;-86
2022/05/12 03:48:44;;;;;;;8.17;3.23;;;11.30;88.30;;;;;;4810845;29;20184;-86
2022/05/12 03:51:12;;;;;;;12.80;5.93;;;11.20;88.20;;;;;;4811085;29;20639;-86
2022/05/12 03:53:40;;;;;;;6.93;3.70;;;11.20;88.30;;;;;;4810759;29;20721;-87
2022/05/12 03:56:06;;;;;;;9.90;4.10;;;11.20;88.20;;;;;;4827230;29;20271;-88
2022/05/12 03:58:33;;;;;;;18.50;5.63;;;11.10;88.10;;;;;;4827278;29;20636;-86
2022/05/12 04:00:59;;;;;;;13.47;4.43;;;11.20;87.80;;;;;;4827618;29;20627;-88
2022/05/12 04:03:25;;;;;;;11.53;4.23;;;11.20;87.80;;;;;;4827101;29;20207;-87
2022/05/12 04:05:50;;;;;;;19.03;4.93;;;11.20;87.50;;;;;;4811031;29;20589;-86
2022/05/12 04:08:16;;;;;;;12.37;3.90;;;11.20;87.60;;;;;;4810885;29;20187;-88
2022/05/12 04:10:41;;;;;;;13.83;4.47;;;11.00;87.70;;;;;;4826881;29;20235;-87
2022/05/12 04:13:07;;;;;;;10.10;4.17;;;11.00;87.70;;;;;;4827031;29;20204;-86
2022/05/12 04:15:33;;;;;;;9.63;4.33;;;11.00;87.80;;;;;;4826645;29;20635;-87
2022/05/12 04:18:01;;;;;;;11.10;4.13;;;11.00;87.70;;;;;;4826960;29;20191;-87
2022/05/12 04:20:28;;;;;;;12.03;4.53;;;11.00;87.80;;;;;;4810349;29;20188;-87
2022/05/12 04:22:54;;;;;;;13.37;4.30;;;11.00;88.00;;;;;;4810304;29;20215;-87
2022/05/12 04:25:20;;;;;;;11.87;3.97;;;10.90;88.30;;;;;;4810174;29;20212;-87
2022/05/12 04:27:46;;;;;;;10.33;4.43;;;10.90;88.50;;;;;;4810455;29;20184;-88
2022/05/12 04:30:14;;;;;;;12.90;4.43;;;10.90;88.60;;;;;;4826324;29;20181;-86
2022/05/12 04:32:40;;;;;;;14.90;4.60;;;11.00;88.50;;;;;;4809964;29;20298;-87
2022/05/12 04:35:11;;;;;;;16.20;5.63;;;11.00;87.80;;;;;;4810044;29;20226;-87
2022/05/12 04:37:38;;;;;;;13.53;4.90;;;11.10;87.40;;;;;;4809948;29;20674;-86
2022/05/12 04:40:08;;;;;;;15.20;4.33;;;11.20;87.40;;;;;;4826219;29;20533;-87
2022/05/12 04:42:34;;;;;;;13.73;4.47;;;11.30;87.50;;;;;;4809926;29;20212;-87
2022/05/12 04:44:59;;;;;;;15.77;4.50;;;11.20;87.60;;;;;;4826133;29;20212;-87
2022/05/12 04:47:25;;;;;;;11.40;5.60;;;11.20;87.70;;;;;;4810116;29;20190;-86
2022/05/12 04:49:50;;;;;;;15.93;4.43;;;11.20;87.60;;;;;;4810187;29;20185;-87
2022/05/12 04:52:16;;;;;;;13.73;4.50;;;11.20;87.80;;;;;;4826141;29;20676;-86
2022/05/12 04:54:42;;;;;;;15.97;4.67;;;11.20;87.80;;;;;;4809551;29;20295;-87
2022/05/12 04:57:08;;;;;;;15.53;4.43;;;11.20;87.60;;;;;;4826095;29;20168;-87
2022/05/12 04:59:34;;;;;;;7.90;4.37;;;11.20;87.50;;;;;;4808623;29;20228;-87
2022/05/12 05:02:00;;;;;;;13.20;4.07;;;11.20;87.50;;;;;;4826127;29;20671;-86
2022/05/12 05:04:26;;;;;;;16.50;4.33;;;11.20;87.20;;;;;;4809478;29;20300;-87
2022/05/12 05:06:52;;;;;;;12.00;3.30;;;11.20;86.90;;;;;;4826000;29;20240;-86
2022/05/12 05:09:17;;;;;;;9.43;4.23;;;11.30;86.70;;;;;;4809607;29;20331;-87
2022/05/12 05:11:43;;;;;;;11.87;4.00;;;11.30;86.70;;;;;;4826086;29;20180;-86
2022/05/12 05:14:09;;;;;;;11.73;3.30;;;11.50;87.10;;;;;;4825947;29;20184;-87
2022/05/12 05:16:35;;;;;;;12.20;3.60;;;11.50;87.20;;;;;;4810426;29;20551;-87
2022/05/12 05:19:01;;;;;;;13.83;4.50;;;11.40;87.40;;;;;;4809565;29;20326;-87
2022/05/12 05:21:26;;;;;;;8.93;3.97;;;11.40;87.50;;;;;;4825904;29;20215;-86
2022/05/12 05:23:52;;;;;;;10.20;3.57;;;11.50;88.00;;;;;;4825766;29;20220;-87
2022/05/12 05:26:18;;;;;;;7.60;3.60;;;11.50;87.70;;;;;;4809549;29;20561;-88
2022/05/12 05:28:44;;;;;;;16.97;3.80;;;11.50;87.70;;;;;;4825922;29;20257;-87
2022/05/12 05:31:09;;;;;;;13.47;3.93;;;11.70;87.80;;;;;;4826098;29;20212;-88
2022/05/12 05:33:35;;;;;;;11.00;3.40;;;11.60;87.40;;;;;;4825739;29;20275;-87
2022/05/12 05:36:01;;;;;;;14.50;3.90;;;11.70;87.80;;;;;;4809244;29;20220;-87
2022/05/12 05:38:27;;;;;;;9.50;4.20;;;11.70;87.50;;;;;;4825538;29;20200;-87
2022/05/12 05:40:53;;;;;;;10.83;3.50;;;11.80;87.50;;;;;;4825678;29;20176;-87
2022/05/12 05:43:19;;;;;;;11.30;3.90;;;11.90;87.40;;;;;;4825518;29;20634;-87
2022/05/12 05:45:46;;;;;;;10.53;4.43;;;11.90;87.20;;;;;;4809250;29;20260;-87
2022/05/12 05:48:11;;;;;;;10.30;3.93;;;11.90;87.00;;;;;;4825879;29;20173;-87
2022/05/12 05:53:26;;;;;;;11.03;3.53;;;11.80;86.60;;;;;;4825496;29;20207;-87
2022/05/12 05:55:53;;;;;;;13.40;4.23;;;12.00;86.80;;;;;;4825393;29;20196;-88
2022/05/12 05:58:19;;;;;;;13.13;4.77;;;12.00;87.20;;;;;;4825287;29;20212;-88
2022/05/12 06:00:45;;;;;;;16.20;4.73;;;12.10;87.00;;;;;;4825438;29;20180;-87
2022/05/12 06:03:11;;;;;;;17.30;4.20;;;12.20;86.80;;;;;;4825466;29;20200;-87
2022/05/12 06:05:37;;;;;;;16.23;5.03;;;12.10;86.70;;;;;;4808884;29;20671;-87
2022/05/12 06:08:04;;;;;;;11.17;4.07;;;12.10;86.60;;;;;;4808943;29;20207;-88
2022/05/12 06:10:30;;;;;;;13.73;3.80;;;12.30;86.80;;;;;;4808547;29;20268;-87
2022/05/12 06:12:56;;;;;;;10.80;4.33;;;12.30;86.40;;;;;;4808939;29;20204;-87
2022/05/12 06:15:22;;;;;;;8.37;3.10;;;12.20;86.00;;;;;;4825142;29;20180;-87
2022/05/12 06:17:48;;;;;;;21.43;4.53;;;12.30;86.80;;;;;;4808896;29;20283;-87
2022/05/12 06:20:14;;;;;;;5.53;2.87;;;12.20;86.20;;;;;;4808554;29;20251;-87
2022/05/12 06:22:39;;;;;;;12.73;3.30;;;12.20;85.40;;;;;;4809697;29;20292;-86
2022/05/12 06:25:07;;;;;;;9.07;2.83;;;12.40;85.90;;;;;;4808688;29;20277;-88
2022/05/12 06:27:33;;;;;;;13.30;3.83;;;12.30;85.50;;;;;;4808268;29;20232;-88
2022/05/12 06:29:59;;;;;;;8.53;2.70;;;12.30;85.60;;;;;;4808386;29;20183;-89
2022/05/12 06:32:26;;;;;;;10.23;3.70;;;12.30;85.20;;;;;;4824975;29;20196;-90
2022/05/12 06:34:53;;;;;;;9.20;3.43;;;12.30;85.40;;;;;;4808654;29;20180;-88
2022/05/12 06:37:19;;;;;;;11.73;3.30;;;12.30;84.90;;;;;;4809753;29;20234;-88
2022/05/12 06:39:45;;;;;;;11.47;3.40;;;12.30;84.40;;;;;;4809611;29;20207;-88
2022/05/12 06:42:12;;;;;;;10.37;3.20;;;12.50;84.50;;;;;;4809639;29;20244;-89
2022/05/12 06:44:42;;;;;;;6.10;2.50;;;12.80;84.40;;;;;;4826218;29;20210;-89
2022/05/12 06:47:15;;;;;;;9.40;2.93;;;12.80;84.00;;;;;;4826794;29;20211;-90
2022/05/12 06:49:42;;;;;;;8.53;2.43;;;12.70;83.40;;;;;;4810295;29;20188;-88
2022/05/12 06:52:08;;;;;;;7.13;2.63;;;12.70;83.90;;;;;;4825965;29;20228;-89
2022/05/12 06:54:39;;;;;;;8.87;3.00;;;12.70;84.00;;;;;;4809882;29;20195;-88
2022/05/12 06:57:05;;;;;;;9.40;2.80;;;12.70;83.10;;;;;;4826362;29;20746;-88
2022/05/12 06:59:31;;;;;;;9.97;2.57;;;12.90;82.50;;;;;;4810166;29;20204;-89
2022/05/12 07:01:56;;;;;;;9.53;3.40;;;12.90;82.10;;;;;;4809965;29;20203;-88
2022/05/12 07:04:24;;;;;;;9.27;2.40;;;13.20;83.20;;;;;;4809896;29;20204;-89
2022/05/12 07:06:49;;;;;;;9.03;3.13;;;12.90;82.30;;;;;;4809828;29;20208;-88
2022/05/12 07:09:18;;;;;;;13.83;3.90;;;12.90;82.50;;;;;;4809730;29;20192;-88
2022/05/12 07:11:44;;;;;;;8.80;3.43;;;13.10;82.50;;;;;;4809954;29;20667;-88
2022/05/12 07:14:10;;;;;;;10.23;3.40;;;13.20;82.40;;;;;;4810082;29;20188;-88
2022/05/12 07:16:36;;;;;;;10.33;3.73;;;13.20;81.50;;;;;;4809483;29;20185;-89
2022/05/12 07:19:02;;;;;;;13.60;3.80;;;13.50;82.20;;;;;;4810380;29;20256;-88
2022/05/12 07:26:55;;;;;;;8.77;2.47;;;13.30;81.10;;;;;;4829677;29;20705;-88
2022/05/12 07:29:27;;;;;;;7.83;2.33;;;13.30;81.00;;;;;;4813352;29;20200;-89
2022/05/12 07:31:54;;;;;;;9.20;2.97;;;13.60;79.50;;;;;;4829160;29;20245;-88
2022/05/12 07:34:20;;;;;;;7.50;2.50;;;13.50;79.90;;;;;;4813032;29;20202;-88
2022/05/12 07:36:50;;;;;;;11.87;2.93;;;13.60;79.30;;;;;;4829063;29;20218;-88
2022/05/12 07:39:17;;;;;;;10.00;2.90;;;13.70;79.70;;;;;;4812428;29;20195;-88
2022/05/12 07:41:42;;;;;;;9.97;2.43;;;13.70;78.70;;;;;;4813104;29;20618;-88
2022/05/12 07:44:09;;;;;;;6.40;2.43;;;13.70;78.10;;;;;;4829274;29;20235;-89
2022/05/12 07:46:35;;;;;;;6.20;2.60;;;13.80;77.70;;;;;;4813149;29;20647;-88
2022/05/12 07:49:01;;;;;;;8.37;2.37;;;14.00;79.40;;;;;;4813762;29;20229;-89
2022/05/12 07:51:26;;;;;;;9.77;2.93;;;13.90;79.30;;;;;;4829081;29;20666;-88
2022/05/12 07:53:52;;;;;;;8.33;2.93;;;13.90;78.70;;;;;;4813627;29;20291;-88
2022/05/12 07:56:23;;;;;;;4.93;2.40;;;14.00;79.10;;;;;;4813589;29;20667;-89
2022/05/12 07:58:50;;;;;;;15.20;2.83;;;14.10;78.60;;;;;;4812961;29;20222;-89
2022/05/12 08:01:17;;;;;;;8.30;2.30;;;14.20;77.70;;;;;;4812918;29;20187;-89
2022/05/12 08:03:44;;;;;;;7.00;2.10;;;14.10;78.10;;;;;;4812527;29;20200;-88
2022/05/12 08:06:10;;;;;;;11.37;2.67;;;14.20;79.10;;;;;;4812957;29;20183;-89
2022/05/12 08:08:36;;;;;;;5.80;2.40;;;14.10;76.80;;;;;;4813282;29;20223;-88
2022/05/12 08:11:03;;;;;;;8.50;2.03;;;14.30;77.30;;;;;;4812599;29;20618;-88
2022/05/12 08:13:29;;;;;;;7.27;2.03;;;14.20;76.00;;;;;;4828793;29;20226;-89
2022/05/12 08:15:55;;;;;;;6.17;2.70;;;14.30;76.50;;;;;;4813202;29;20706;-89
2022/05/12 08:18:23;;;;;;;8.47;2.50;;;14.60;75.60;;;;;;4813036;29;20192;-89
2022/05/12 08:20:49;;;;;;;5.10;2.23;;;14.50;75.80;;;;;;4812715;29;20196;-89
2022/05/12 08:23:16;;;;;;;4.03;1.93;;;14.50;75.40;;;;;;4828917;29;20203;-88
2022/05/12 08:25:43;;;;;;;7.40;2.47;;;14.40;75.90;;;;;;4828600;29;20243;-88
2022/05/12 08:28:12;;;;;;;5.50;2.00;;;14.30;76.50;;;;;;4812143;29;20188;-89
2022/05/12 08:30:37;;;;;;;7.50;1.90;;;14.60;75.30;;;;;;4812204;29;20192;-89
2022/05/12 08:33:03;;;;;;;10.03;2.73;;;14.90;72.90;;;;;;4812472;29;20207;-88
2022/05/12 08:35:28;;;;;;;5.23;1.70;;;15.20;74.10;;;;;;4813380;29;20199;-88
2022/05/12 08:37:54;;;;;;;10.30;3.10;;;15.00;71.00;;;;;;4812006;29;20188;-88
2022/05/12 08:40:40;;;;;;;11.57;2.27;;;14.90;73.50;;;;;;4812070;29;20729;-88
2022/05/12 08:43:17;;;;;;;4.90;1.93;;;14.80;73.20;;;;;;4828523;29;20210;-89
2022/05/12 08:45:44;;;;;;;7.07;1.73;;;14.80;71.50;;;;;;4811893;29;20220;-89
2022/05/12 08:48:11;;;;;;;13.80;2.07;;;14.70;71.30;;;;;;4810891;29;20275;-87
2022/05/12 08:50:39;;;;;;;8.47;1.83;;;14.50;72.40;;;;;;4827753;29;20554;-89
2022/05/12 08:53:12;;;;;;;4.00;1.80;;;14.60;71.60;;;;;;4811864;29;20261;-89
2022/05/12 08:55:46;;;;;;;4.93;1.70;;;15.00;72.10;;;;;;4811525;29;20242;-89
2022/05/12 08:58:17;;;;;;;7.03;2.73;;;15.20;71.20;;;;;;4811684;29;20187;-90
2022/05/12 09:01:07;;;;;;;9.87;3.40;;;15.30;71.10;;;;;;4827873;29;20184;-90
2022/05/12 09:03:54;;;;;;;4.33;1.97;;;15.50;70.00;;;;;;4811320;29;20256;-90
2022/05/12 09:06:26;;;;;;;6.03;1.87;;;15.30;67.40;;;;;;4811794;29;20219;-89
2022/05/12 09:08:55;;;;;;;7.43;2.13;;;15.60;70.20;;;;;;4811331;29;20651;-89
2022/05/12 09:11:32;;;;;;;11.20;2.60;;;15.90;70.50;;;;;;4811276;29;20176;-88
2022/05/12 09:14:00;;;;;;;6.63;1.70;;;16.30;69.00;;;;;;4811098;29;20270;-90
2022/05/12 09:16:29;;;;;;;6.72;2.05;;;16.30;67.30;;;;;;4810729;29;20747;-90
2022/05/12 09:18:55;;;;;;;3.97;1.58;;;16.30;66.40;;;;;;4809913;29;20180;-90
2022/05/12 09:21:25;;;;;;;4.25;1.52;;;16.20;66.20;;;;;;4809973;29;20191;-89
2022/05/12 09:23:51;;;;;;;7.55;2.50;;;16.10;66.10;;;;;;4809573;29;20211;-89
2022/05/12 09:26:40;;;;;;;7.05;2.70;;;16.20;64.80;;;;;;4809786;29;20212;-88
2022/05/12 09:29:30;;;;;;;4.78;1.63;;;16.50;65.50;;;;;;4826149;29;20668;-87
2022/05/12 09:32:03;;;;;;;6.30;1.60;;;16.70;64.30;;;;;;4809224;29;20205;-88
2022/05/12 09:34:32;;;;;;;5.40;1.73;;;16.70;62.20;;;;;;4810793;29;20188;-88
2022/05/12 09:37:13;;;;;;;3.75;1.35;;;16.70;63.30;;;;;;4809891;29;20188;-87
2022/05/12 09:39:42;;;;;;;5.65;1.58;;;16.50;64.70;;;;;;4810768;29;20275;-89
2022/05/12 09:42:16;;;;;;;5.03;1.60;;;16.10;64.50;;;;;;4810494;29;20791;-89
2022/05/12 09:44:55;;;;;;;7.72;2.03;;;15.90;63.70;;;;;;4809766;29;20207;-89
2022/05/12 09:47:20;;;;;;;6.90;1.90;;;16.10;65.00;;;;;;4809584;29;20184;-89
2022/05/12 09:49:47;;;;;;;4.82;1.80;;;16.30;64.70;;;;;;4809715;29;20673;-89
2022/05/12 09:52:37;;;;;;;8.43;1.90;;;16.60;63.20;;;;;;4809972;29;20238;-88
2022/05/12 09:55:20;;;;;;;4.75;1.60;;;17.00;63.00;;;;;;4809603;29;20270;-89
2022/05/12 09:58:04;;;;;;;5.05;1.58;;;17.00;61.30;;;;;;4810024;29;20180;-89
2022/05/12 10:00:34;;;;;;;6.68;1.73;;;16.90;60.30;;;;;;4826197;29;20240;-89
2022/05/12 10:09:05;;;;;;;5.03;1.25;;;16.30;61.50;;;;;;4826929;29;20551;-89
2022/05/12 10:12:15;;;;;;;7.60;1.67;;;16.90;59.80;;;;;;4809920;29;20675;-89
2022/05/12 10:14:50;;;;;;;5.90;1.60;;;17.50;60.30;;;;;;4810151;29;20184;-89
2022/05/12 10:17:38;;;;;;;4.78;1.42;;;17.40;58.80;;;;;;4826423;29;20176;-88
2022/05/12 10:20:11;;;;;;;4.10;2.08;;;16.60;59.10;;;;;;4810682;29;20213;-88
2022/05/12 10:22:44;;;;;;;6.05;1.70;;;16.30;61.40;;;;;;4810654;29;20211;-89
2022/05/12 10:25:22;;;;;;;4.85;1.50;;;16.40;61.70;;;;;;4826530;29;20202;-89
2022/05/12 10:28:02;;;;;;;6.43;1.70;;;16.40;61.10;;;;;;4810261;29;20184;-89
2022/05/12 10:30:42;;;;;;;5.88;1.70;;;17.00;61.60;;;;;;4810174;29;20263;-89
2022/05/12 10:33:26;;;;;;;3.10;1.15;;;17.20;59.50;;;;;;4809923;29;20211;-89
2022/05/12 10:36:11;;;;;;;3.85;1.48;;;17.30;58.10;;;;;;4810101;29;20176;-92
2022/05/12 10:38:48;;;;;;;4.90;1.25;;;17.60;56.70;;;;;;4809758;29;20180;-89
2022/05/12 10:41:29;;;;;;;6.32;1.60;;;17.50;55.40;;;;;;4809530;29;20211;-89
2022/05/12 10:43:57;;;;;;;5.07;1.48;;;17.20;56.80;;;;;;4809584;29;20541;-89
2022/05/12 10:46:42;;;;;;;5.93;1.27;;;17.40;56.60;;;;;;4809398;29;20180;-89
2022/05/12 10:49:26;;;;;;;6.57;1.63;;;17.70;58.10;;;;;;4826179;29;20172;-89
2022/05/12 10:52:28;;;;;;;5.82;1.50;;;17.90;59.60;;;;;;4809621;29;20623;-88
2022/05/12 10:55:26;;;;;;;6.55;1.63;;;17.80;57.70;;;;;;4810005;29;20195;-88
2022/05/12 10:58:00;;;;;;;9.00;1.48;;;17.40;57.20;;;;;;4829206;29;20239;-88
2022/05/12 11:00:51;;;;;;;6.80;1.63;;;16.50;60.20;;;;;;4812941;29;20183;-88
2022/05/12 11:03:54;;;;;;;6.28;1.85;;;16.20;60.80;;;;;;4813503;29;20623;-87
2022/05/12 11:06:24;;;;;;;6.57;1.48;;;16.30;61.70;;;;;;4804048;29;20291;-88
2022/05/12 11:09:06;;;;;;;4.20;1.58;;;16.60;60.90;;;;;;4812936;29;20183;-87
2022/05/12 11:11:37;;;;;;;6.43;1.95;;;17.30;59.70;;;;;;4813012;29;20184;-88
2022/05/12 11:14:05;;;;;;;5.15;1.50;;;17.40;58.10;;;;;;4828702;29;20221;-88
2022/05/12 11:16:44;;;;;;;9.05;1.58;;;17.50;58.90;;;;;;4828482;29;20203;-88
2022/05/12 11:19:20;;;;;;;6.47;1.65;;;17.50;55.60;;;;;;4812501;29;20184;-88
2022/05/12 11:22:11;;;;;;;6.35;1.50;;;17.30;57.40;;;;;;4813321;29;20190;-88
2022/05/12 11:25:05;;;;;;;7.07;1.98;;;17.30;58.60;;;;;;4810100;29;20649;-88
2022/05/12 11:31:08;;;;;;;6.80;1.30;;;17.00;59.00;;;;;;4828803;29;20546;-89
2022/05/12 11:33:38;;;;;;;6.68;1.90;;;17.80;59.30;;;;;;4828692;29;20202;-88
2022/05/12 11:36:07;;;;;;;6.55;1.63;;;18.00;57.20;;;;;;4812681;29;20279;-88
2022/05/12 11:38:39;;;;;;;5.35;1.60;;;18.20;57.30;;;;;;4812227;29;20192;-89
2022/05/12 11:41:30;;;;;;;6.22;1.70;;;18.10;57.10;;;;;;4812486;29;20184;-88
2022/05/12 11:44:24;;;;;;;3.58;1.30;;;18.20;57.20;;;;;;4811785;29;20195;-89
2022/05/12 11:47:00;;;;;;;3.95;1.23;;;18.00;54.10;;;;;;4812136;29;20651;-89
2022/05/12 11:49:44;;;;;;;3.75;1.10;;;18.40;54.90;;;;;;4813050;29;20188;-89
2022/05/12 11:52:24;;;;;;;4.72;1.17;;;18.70;53.00;;;;;;4811638;29;20689;-90
2022/05/12 11:54:59;;;;;;;3.90;1.48;;;19.00;54.70;;;;;;4811139;29;20204;-91
2022/05/12 11:57:28;;;;;;;4.63;1.23;;;18.90;53.60;;;;;;4811164;29;20226;-91
2022/05/12 11:59:59;;;;;;;4.75;1.50;;;18.60;54.40;;;;;;4811253;29;20236;-91
2022/05/12 12:02:28;;;;;;;6.63;1.45;;;18.50;52.90;;;;;;4810893;29;20580;-89
2022/05/12 12:05:04;;;;;;;6.97;1.80;;;18.10;53.70;;;;;;4827081;29;20226;-90
2022/05/12 12:07:32;;;;;;;3.60;1.23;;;18.30;52.20;;;;;;4828701;29;20181;-89
2022/05/12 12:10:09;;;;;;;6.25;1.98;;;18.70;51.90;;;;;;4811073;29;20607;-89
2022/05/12 12:12:40;;;;;;;3.95;1.30;;;18.70;52.20;;;;;;4811626;29;20196;-89
2022/05/12 12:15:09;;;;;;;3.25;1.30;;;18.80;51.30;;;;;;4812390;29;20184;-89
2022/05/12 12:17:40;;;;;;;6.10;1.55;;;19.00;52.50;;;;;;4810900;29;20804;-91
2022/05/12 12:20:33;;;;;;;4.15;1.20;;;19.10;51.10;;;;;;4811257;29;20245;-88
2022/05/12 12:23:22;;;;;;;4.75;1.67;;;18.60;49.80;;;;;;4823697;29;20222;-90
2022/05/12 12:26:09;;;;;;;5.18;1.48;;;18.80;52.40;;;;;;4810886;29;20352;-89
2022/05/12 12:28:55;;;;;;;4.97;1.77;;;18.90;51.20;;;;;;4810652;29;20240;-90
2022/05/12 12:31:34;;;;;;;4.50;1.40;;;18.40;50.90;;;;;;4811379;29;20217;-91
2022/05/12 12:34:12;;;;;;;4.03;1.52;;;18.90;50.50;;;;;;4811804;29;20184;-89
2022/05/12 12:37:00;;;;;;;4.30;1.40;;;18.40;50.00;;;;;;4812183;29;20274;-91
2022/05/12 12:39:33;;;;;;;5.78;1.52;;;18.70;52.60;;;;;;4811561;29;20184;-91
2022/05/12 12:42:14;;;;;;;9.43;1.60;;;19.10;51.20;;;;;;4811671;29;20746;-92
2022/05/12 12:44:45;;;;;;;4.70;1.35;;;19.30;50.60;;;;;;4827424;29;20216;-93
2022/05/12 12:47:48;;;;;;;4.72;1.27;;;19.20;52.10;;;;;;4811022;29;20219;-92
2022/05/12 12:50:24;;;;;;;5.70;1.63;;;19.00;51.90;;;;;;4811255;29;20172;-90
2022/05/12 12:52:50;;;;;;;6.40;1.75;;;19.20;52.90;;;;;;4810629;29;20204;-90
2022/05/12 12:58:04;;;;;;;3.83;1.40;;;19.50;51.40;;;;;;4827818;29;20705;-91
2022/05/12 13:00:35;;;;;;;6.55;1.92;;;19.20;51.90;;;;;;4826978;29;20184;-91
2022/05/12 13:03:08;;;;;;;6.97;2.05;;;18.60;51.10;;;;;;4810947;29;20203;-90
2022/05/12 13:05:36;;;;;;;5.95;1.75;;;19.00;54.90;;;;;;4810428;29;20248;-91
2022/05/12 13:08:19;;;;;;;6.88;1.90;;;18.70;52.00;;;;;;4810150;29;20176;-91
2022/05/12 13:10:47;;;;;;;9.00;1.83;;;18.40;54.90;;;;;;4810792;29;20620;-90
2022/05/12 13:13:13;;;;;;;4.45;1.40;;;18.90;55.60;;;;;;4810176;29;20341;-90
2022/05/12 13:15:43;;;;;;;7.13;1.80;;;19.20;54.60;;;;;;4810295;29;20229;-91
2022/05/12 13:18:23;;;;;;;6.90;2.03;;;20.10;52.00;;;;;;4809788;29;20181;-91
2022/05/12 13:20:50;;;;;;;11.32;2.05;;;19.60;51.30;;;;;;4809200;29;20184;-90